ドーハ国際空港の過去48時間の天気

ドーハ国際空港 (Doha International Airport)

現在時刻: 7/5 06:41 +03 (7/5 03:41 UTC) 以下の時間は現地時間です。

過去48時間のMETAR気象情報
時間 風向 風速(m/s) 視程 気温(℃) 湿度(%) 気圧(hPa) 天気現象
5 06:00 北北西 1 5000m 31 70 996 煙霧
5 05:30 静穏 0 5000m 30 79 996 煙霧
5 05:00 東北東 1 6000m 31 79 996
5 04:30 東北東 2 7000m 30 84 996
5 04:00 2 7000m 31 70 995
5 03:30 不定 1 7000m 31 70 995
5 03:00 静穏 0 7000m 31 70 995
5 02:30 北東 1 7000m 32 67 994
5 02:00 不定 1 7000m 31 66 994
5 01:30 不定 1 7000m 33 59 994
5 01:00 南南西 2 7000m 34 53 994
5 00:30 南西 2 7000m 34 53 994
5 00:00 南西 3 7000m 34 50 994
4 23:30 南西 2 8000m 34 50 995
4 23:00 不定 1 8000m 33 63 995
4 22:30 東北東 1 8000m 33 59 995
4 22:00 北東 1 8000m 33 63 995
4 21:30 北北東 1 8000m 34 60 995
4 21:00 2 9000m 34 53 995
4 20:30 2 8000m 35 50 994
4 20:00 北北西 3 8000m 35 47 994
4 19:30 4 8000m 34 60 994
4 19:00 北北西 4 7000m 34 60 994
4 18:30 5 7000m 34 60 994
4 18:00 北北西 5 6000m 35 56 994
4 17:30 北北西 6 6000m 35 53 994
4 17:00 5 6000m 36 47 994
4 16:30 5 6000m 36 44 994
4 16:00 5 7000m 37 40 994
4 15:30 北北東 5 7000m 37 40 994
4 15:00 6 7000m 38 37 994
4 14:30 7 7000m 37 37 994
4 14:00 6 7000m 38 35 995
4 13:30 北北東 7 7000m 39 29 995
4 13:00 北北東 6 6000m 41 19 995
4 12:30 北北東 6 6000m 42 19 995
4 12:00 5 6000m 43 15 995
4 11:30 6 6000m 43 17 995
4 11:00 5 6000m 42 19 995
4 10:30 5 6000m 42 16 996
4 10:00 北西 4 8000m 42 18 996
4 09:30 北西 5 9000m 41 18 995
4 09:00 西北西 4 10km以上 41 18 995
4 08:30 西北西 4 10km以上 40 19 995
4 08:00 西北西 5 10km以上 39 20 995
4 07:30 西北西 4 10km以上 38 24 995
4 07:00 西 4 10km以上 37 25 995
4 06:30 西 3 10km以上 35 32 995
4 06:00 西 2 10km以上 34 34 995
4 05:30 西 3 10km以上 34 32 995
4 05:00 西 3 10km以上 34 32 995
4 04:30 西 3 10km以上 34 32 994
4 04:00 西 2 10km以上 34 32 994
4 03:30 西 3 10km以上 34 32 994
4 03:00 西 2 10km以上 34 32 994
4 02:30 西 3 10km以上 34 32 994
4 02:00 西 2 10km以上 34 30 994
4 01:30 西 2 10km以上 35 27 994
4 01:00 西 2 10km以上 35 25 994
4 00:30 西 3 10km以上 35 23 994
4 00:00 西 2 10km以上 36 21 994
3 23:30 西 2 10km以上 36 22 994
3 23:00 西北西 4 10km以上 36 19 995
3 22:30 北西 4 10km以上 37 16 995
3 22:00 北西 4 10km以上 37 16 995
3 21:30 北北西 5 10km以上 37 17 995
3 21:00 北北西 4 10km以上 37 17 995
3 20:30 北北西 6 10km以上 36 22 994
3 20:00 北北西 6 10km以上 36 24 995
3 19:30 北北西 6 10km以上 37 24 994
3 19:00 北北西 6 10km以上 37 24 994
3 18:30 北北西 7 10km以上 37 25 994
3 18:00 北北西 8 10km以上 38 24 994
3 17:30 北北西 9 10km以上 39 18 994
3 17:00 北北西 9 10km以上 40 18 994
3 16:30 北北西 10 10km以上 41 17 993
3 16:00 北西 8 10km以上 42 13 993
3 15:30 北北西 10 10km以上 42 15 993
3 15:00 北北西 10 10km以上 43 11 993
3 14:30 北北西 11 10km以上 43 12 993
3 14:00 北北西 10 10km以上 43 12 993
3 13:30 北北西 11 10km以上 42 16 994
3 13:00 北北西 12 10km以上 43 14 994
3 12:30 北北西 12 10km以上 43 15 994
3 12:00 北北西 11 9000m 43 16 994
3 11:30 北北西 10 8000m 43 15 994
3 11:00 北北西 11 7000m 43 16 994
3 10:30 北北西 12 5000m 43 14 994 高い風塵
3 10:00 北北西 10 6000m 43 14 994
3 09:30 北北西 9 7000m 42 15 994
3 09:00 北西 9 7000m 41 17 994
3 08:30 北西 9 7000m 40 20 994
3 08:00 北西 8 7000m 39 21 994
3 07:30 北北西 9 6000m 38 24 994
3 07:00 北北西 10 5000m 38 24 994 高い風塵
OTBD 050300Z 34002KT 5000 HZ NSC 31/25 Q0996 TEMPO 4500
OTBD 050230Z 00000KT 5000 HZ NSC 30/26 Q0996 TEMPO 4500
OTBD 050200Z 07002KT 6000 NSC 31/27 Q0996 NOSIG
OTBD 050130Z 06003KT 7000 NSC 30/27 Q0996 NOSIG
OTBD 050100Z 10003KT 7000 NSC 31/25 Q0995 NOSIG
OTBD 050030Z VRB02KT 7000 NSC 31/25 Q0995 NOSIG
OTBD 050000Z 00000KT 7000 NSC 31/25 Q0995 NOSIG
OTBD 042330Z 05002KT 7000 NSC 32/25 Q0994 NOSIG
OTBD 042300Z VRB01KT 7000 NSC 31/24 Q0994 NOSIG
OTBD 042230Z AUTO VRB02KT 7000 NSC 33/24 Q0994 NOSIG
OTBD 042200Z AUTO 21003KT 170V280 7000 NSC 34/23 Q0994 NOSIG
OTBD 042130Z AUTO 22004KT 190V260 7000 NSC 34/23 Q0994 NOSIG
OTBD 042100Z 22005KT 190V250 7000 NSC 34/22 Q0994 NOSIG
OTBD 042030Z 22004KT 190V250 8000 NSC 34/22 Q0995 NOSIG
OTBD 042000Z VRB01KT 8000 NSC 33/25 Q0995 NOSIG
OTBD 041930Z 06002KT 8000 NSC 33/24 Q0995 NOSIG
OTBD 041900Z 04002KT 8000 NSC 33/25 Q0995 NOSIG
OTBD 041830Z 03002KT 8000 NSC 34/25 Q0995 NOSIG
OTBD 041800Z 01003KT 9000 NSC 34/23 Q0995 NOSIG
OTBD 041730Z 36004KT 8000 NSC 35/23 Q0994 NOSIG
OTBD 041700Z 33005KT 8000 NSC 35/22 Q0994 NOSIG
OTBD 041630Z 35007KT 8000 NSC 34/25 Q0994 NOSIG
OTBD 041600Z 34008KT 7000 NSC 34/25 Q0994 NOSIG
OTBD 041530Z 35010KT 7000 NSC 34/25 Q0994 NOSIG
OTBD 041500Z 34010KT 6000 NSC 35/25 Q0994 NOSIG
OTBD 041430Z 34011KT 6000 NSC 35/24 Q0994 NOSIG
OTBD 041400Z 36009KT 6000 NSC 36/23 Q0994 NOSIG
OTBD 041330Z 01010KT 6000 NSC 36/22 Q0994 NOSIG
OTBD 041300Z 01009KT 7000 NSC 37/21 Q0994 NOSIG
OTBD 041230Z 02010KT 7000 NSC 37/21 Q0994 NOSIG
OTBD 041200Z 36011KT 7000 NSC 38/21 Q0994 NOSIG
OTBD 041130Z 01013KT 7000 NSC 37/20 Q0994 NOSIG
OTBD 041100Z 01012KT 7000 NSC 38/20 Q0995 NOSIG
OTBD 041030Z 02013KT 7000 NSC 39/18 Q0995 NOSIG
OTBD 041000Z 02012KT 6000 NSC 41/13 Q0995 NOSIG
OTBD 040930Z 02012KT 6000 NSC 42/14 Q0995 NOSIG
OTBD 040900Z 36010KT 6000 NSC 43/11 Q0995 NOSIG
OTBD 040830Z 36011KT 6000 NSC 43/13 Q0995 NOSIG
OTBD 040800Z 36010KT 6000 NSC 42/14 Q0995 NOSIG
OTBD 040730Z 35010KT 320V020 6000 NSC 42/11 Q0996 NOSIG
OTBD 040700Z 31008KT 270V350 8000 NSC 42/13 Q0996 NOSIG
OTBD 040630Z 31009KT 280V350 9000 NSC 41/12 Q0995 NOSIG
OTBD 040600Z 29008KT 240V330 CAVOK 41/12 Q0995 NOSIG
OTBD 040530Z 29007KT 240V330 CAVOK 40/12 Q0995 NOSIG
OTBD 040500Z 29010KT 270V330 CAVOK 39/12 Q0995 NOSIG
OTBD 040430Z 29007KT 230V320 CAVOK 38/14 Q0995 NOSIG
OTBD 040400Z 28007KT 210V320 CAVOK 37/14 Q0995 NOSIG
OTBD 040330Z 28005KT 230V310 CAVOK 35/16 Q0995 NOSIG
OTBD 040300Z 27004KT 220V310 CAVOK 34/16 Q0995 NOSIG
OTBD 040230Z 28005KT 250V310 CAVOK 34/15 Q0995 NOSIG
OTBD 040200Z 27006KT 230V310 CAVOK 34/15 Q0995 NOSIG
OTBD 040130Z 27005KT 220V320 CAVOK 34/15 Q0994 NOSIG
OTBD 040100Z 26004KT 210V320 CAVOK 34/15 Q0994 NOSIG
OTBD 040030Z 28006KT 240V310 CAVOK 34/15 Q0994 NOSIG
OTBD 040000Z 27004KT 230V320 CAVOK 34/15 Q0994 NOSIG
OTBD 032330Z 28005KT 230V320 CAVOK 34/15 Q0994 NOSIG
OTBD 032300Z 27003KT 210V320 CAVOK 34/14 Q0994 NOSIG
OTBD 032230Z 26004KT 150V310 CAVOK 35/13 Q0994 NOSIG
OTBD 032200Z 27003KT 200V320 CAVOK 35/12 Q0994 NOSIG
OTBD 032130Z 28005KT 240V310 CAVOK 35/11 Q0994 NOSIG
OTBD 032100Z 26004KT 210V310 CAVOK 36/10 Q0994 NOSIG
OTBD 032030Z 27004KT 220V320 CAVOK 36/11 Q0994 NOSIG
OTBD 032000Z 30007KT CAVOK 36/09 Q0995 NOSIG
OTBD 031930Z 32007KT CAVOK 37/07 Q0995 NOSIG
OTBD 031900Z 32008KT CAVOK 37/07 Q0995 NOSIG
OTBD 031830Z 33010KT CAVOK 37/08 Q0995 NOSIG
OTBD 031800Z 33008KT CAVOK 37/08 Q0995 NOSIG
OTBD 031730Z AUTO 33011KT CAVOK 36/11 Q0994 NOSIG
OTBD 031700Z AUTO 33011KT CAVOK 36/12 Q0995 NOSIG
OTBD 031630Z AUTO 33011KT CAVOK 37/13 Q0994 NOSIG
OTBD 031600Z AUTO 34011KT CAVOK 37/13 Q0994 NOSIG
OTBD 031530Z AUTO 34014KT CAVOK 37/14 Q0994 NOSIG
OTBD 031500Z AUTO 34015KT CAVOK 38/14 Q0994 NOSIG
OTBD 031430Z AUTO 34018KT CAVOK 39/10 Q0994 NOSIG
OTBD 031400Z AUTO 34017KT CAVOK 40/11 Q0994 NOSIG
OTBD 031330Z AUTO 33020KT CAVOK 41/11 Q0993 NOSIG
OTBD 031300Z AUTO 32016KT CAVOK 42/08 Q0993 NOSIG
OTBD 031230Z 33020KT CAVOK 42/10 Q0993 NOSIG
OTBD 031200Z 33019KT CAVOK 43/06 Q0993 NOSIG
OTBD 031130Z 33021KT CAVOK 43/07 Q0993 NOSIG
OTBD 031100Z 33019KT CAVOK 43/07 Q0993 NOSIG
OTBD 031030Z 34021KT CAVOK 42/11 Q0994 NOSIG
OTBD 031000Z 34023KT CAVOK 43/10 Q0994 NOSIG
OTBD 030930Z 34023KT CAVOK 43/11 Q0994 NOSIG
OTBD 030900Z 34022KT 9000 NSC 43/12 Q0994 NOSIG
OTBD 030830Z 34020KT 8000 NSC 43/11 Q0994 NOSIG
OTBD 030800Z 33021KT 7000 NSC 43/12 Q0994 NOSIG
OTBD 030730Z 33023G33KT 5000 BLDU NSC 43/10 Q0994 TEMPO 4000
OTBD 030700Z 33020G30KT 6000 NSC 43/10 Q0994 NOSIG
OTBD 030630Z 33018G28KT 7000 NSC 42/10 Q0994 NOSIG
OTBD 030600Z 32018G30KT 7000 NSC 41/11 Q0994 NOSIG
OTBD 030530Z 32017G29KT 7000 NSC 40/13 Q0994 NOSIG
OTBD 030500Z 32016KT 290V350 7000 NSC 39/13 Q0994 NOSIG
OTBD 030430Z 33017KT 6000 NSC 38/14 Q0994 NOSIG
OTBD 030400Z 33019KT 5000 BLDU NSC 38/14 Q0994 NOSIG